Time;durP1;ratioP1;P1;durP2;ratioP2;P2;SDS_P1;SDS_P2;PMS_P1;PMS_P2;Temp;Humidity;BMP_temperature;BMP_pressure;BME280_temperature;BME280_humidity;BME280_pressure;Samples;Min_cycle;Max_cycle;Signal;HPM_P1;HPM_P2
2023/06/19 00:02:43;;;;;;;12.95;10.18;;;16.80;99.90;;;;;;12507724;23;20252;-78
2023/06/19 00:08:06;;;;;;;17.02;11.35;;;16.70;1.00;;;;;;12507846;23;20408;-78
2023/06/19 00:13:27;;;;;;;48.08;24.10;;;16.80;99.90;;;;;;12507968;23;20192;-78
2023/06/19 00:18:48;;;;;;;37.80;22.08;;;16.80;1.00;;;;;;12506946;23;20394;-78
2023/06/19 00:24:11;;;;;;;21.80;14.27;;;16.60;1.00;;;;;;12508172;23;20210;-78
2023/06/19 00:29:33;;;;;;;14.80;10.25;;;16.60;1.00;;;;;;12508501;23;20467;-79
2023/06/19 00:34:54;;;;;;;12.55;8.63;;;16.80;11.70;;;;;;12612663;23;20258;-78
2023/06/19 00:40:30;;;;;;;10.45;8.20;;;;;;;;;;12632361;23;20469;-78
2023/06/19 00:45:52;;;;;;;10.65;7.97;;;;;;;;;;12507098;23;20214;-78
2023/06/19 00:51:14;;;;;;;10.23;8.30;;;16.00;1.00;;;;;;12506428;23;20431;-78
2023/06/19 00:56:39;;;;;;;11.70;9.30;;;16.10;1.00;;;;;;12507119;23;20258;-78
2023/06/19 01:02:02;;;;;;;10.63;8.85;;;15.60;99.90;;;;;;12631727;23;20445;-77
2023/06/19 01:07:47;;;;;;;11.57;8.75;;;16.00;99.90;;;;;;12506336;23;20175;-78
2023/06/19 01:13:37;;;;;;;12.07;9.00;;;16.00;99.90;;;;;;12507550;23;20182;-77
2023/06/19 01:18:59;;;;;;;12.82;9.32;;;15.90;24.50;;;;;;12505992;23;20202;-78
2023/06/19 01:24:20;;;;;;;15.25;9.95;;;15.90;99.90;;;;;;12506471;23;20461;-78
2023/06/19 01:29:42;;;;;;;12.45;9.43;;;15.90;99.90;;;;;;12612282;23;20244;-77
2023/06/19 01:35:05;;;;;;;16.95;10.18;;;15.80;99.90;;;;;;12508236;23;20206;-78
2023/06/19 01:40:31;;;;;;;21.45;11.77;;;15.70;1.00;;;;;;12509278;23;20195;-78
2023/06/19 01:45:53;;;;;;;20.17;12.32;;;15.90;1.00;;;;;;12509773;23;20194;-77
2023/06/19 01:51:14;;;;;;;21.98;12.75;;;15.90;99.90;;;;;;12508977;23;20168;-78
2023/06/19 01:56:37;;;;;;;27.15;13.32;;;15.90;1.00;;;;;;12635239;23;20561;-78
2023/06/19 02:01:58;;;;;;;27.38;12.45;;;15.90;62.70;;;;;;12508699;23;20175;-78
2023/06/19 02:07:22;;;;;;;18.10;10.38;;;15.80;33.00;;;;;;12489528;23;20187;-78
2023/06/19 02:12:44;;;;;;;15.13;10.27;;;15.70;1.00;;;;;;12508523;23;20177;-78
2023/06/19 02:18:06;;;;;;;13.45;9.55;;;;;;;;;;12509192;23;20210;-78
2023/06/19 02:23:28;;;;;;;11.40;9.50;;;;;;;;;;12509695;23;20480;-76
2023/06/19 02:28:50;;;;;;;13.52;10.20;;;;;;;;;;12509252;23;20183;-76
2023/06/19 02:34:11;;;;;;;11.75;10.30;;;;;;;;;;12508769;23;20506;-76
2023/06/19 02:39:33;;;;;;;13.65;10.45;;;;;;;;;;12510139;23;20190;-77
2023/06/19 02:44:54;;;;;;;13.63;10.93;;;;;;;;;;12508569;23;20175;-78
2023/06/19 02:50:16;;;;;;;12.55;10.25;;;;;;;;;;12508686;23;20240;-78
2023/06/19 02:55:38;;;;;;;14.55;11.23;;;;;;;;;;12508546;23;20414;-78
2023/06/19 03:01:02;;;;;;;13.20;10.77;;;;;;;;;;12508591;23;20396;-79
2023/06/19 03:06:23;;;;;;;14.65;10.18;;;;;;;;;;12508864;23;20233;-79
2023/06/19 03:11:47;;;;;;;14.45;11.82;;;;;;;;;;12508136;23;20197;-79
2023/06/19 03:17:11;;;;;;;12.48;11.18;;;;;;;;;;12508227;23;20508;-79
2023/06/19 03:22:36;;;;;;;13.50;11.55;;;;;;;;;;12509922;23;20188;-79
2023/06/19 03:28:01;;;;;;;20.10;13.93;;;;;;;;;;12508287;23;20230;-78
2023/06/19 03:33:25;;;;;;;17.48;13.75;;;;;;;;;;12507913;23;20494;-79
2023/06/19 03:38:50;;;;;;;21.10;14.55;;;;;;;;;;12507949;23;20210;-78
2023/06/19 03:44:17;;;;;;;18.30;14.23;;;;;;;;;;12508365;23;20175;-76
2023/06/19 03:49:41;;;;;;;18.63;13.48;;;;;;;;;;12507932;23;20210;-76
2023/06/19 03:55:06;;;;;;;20.45;13.75;;;;;;;;;;12508953;23;20171;-77
2023/06/19 04:00:30;;;;;;;15.40;11.68;;;;;;;;;;12507451;23;20175;-78
2023/06/19 04:05:54;;;;;;;14.45;11.70;;;;;;;;;;12507716;23;20184;-80
2023/06/19 04:11:18;;;;;;;12.32;10.82;;;;;;;;;;12528177;23;20169;-78
2023/06/19 04:16:42;;;;;;;12.48;10.07;;;;;;;;;;12507579;23;20398;-79
2023/06/19 04:22:06;;;;;;;13.63;11.57;;;;;;;;;;12508615;23;20164;-79
2023/06/19 04:27:30;;;;;;;17.45;12.13;;;;;;;;;;12509110;23;20168;-79
2023/06/19 04:32:54;;;;;;;19.27;12.55;;;;;;;;;;12507648;23;20191;-76
2023/06/19 04:38:18;;;;;;;17.17;12.43;;;;;;;;;;12507732;23;20210;-76
2023/06/19 04:43:41;;;;;;;17.15;14.57;;;16.70;99.90;;;;;;12487486;23;20218;-75
2023/06/19 04:49:05;;;;;;;21.85;15.07;;;;;;;;;;12507286;23;20245;-77
2023/06/19 04:54:32;;;;;;;15.65;13.23;;;;;;;;;;12507626;23;20166;-77
2023/06/19 04:59:56;;;;;;;17.65;14.10;;;;;;;;;;12507158;23;20226;-77
2023/06/19 05:05:20;;;;;;;17.23;11.38;;;17.10;99.90;;;;;;12506397;23;20217;-77
2023/06/19 05:10:46;;;;;;;16.92;14.20;;;;;;;;;;12633141;23;20179;-77
2023/06/19 05:16:10;;;;;;;12.48;10.98;;;;;;;;;;12509586;23;20192;-77
2023/06/19 05:21:33;;;;;;;12.27;10.38;;;17.40;99.90;;;;;;12508577;23;20247;-77
2023/06/19 05:26:57;;;;;;;13.32;10.70;;;;;;;;;;12489593;23;20167;-77
2023/06/19 05:32:21;;;;;;;10.52;9.32;;;;;;;;;;12528745;23;20192;-78
2023/06/19 05:37:45;;;;;;;9.15;8.25;;;;;;;;;;12508521;23;20200;-77
2023/06/19 05:43:09;;;;;;;10.60;9.50;;;;;;;;;;12489014;23;20169;-78
2023/06/19 05:48:32;;;;;;;10.95;9.40;;;;;;;;;;12508415;23;20193;-77
2023/06/19 05:54:01;;;;;;;10.35;8.65;;;;;;;;;;12509341;23;20231;-78
2023/06/19 05:59:24;;;;;;;9.77;8.75;;;;;;;;;;12508737;23;20211;-78
2023/06/19 06:04:48;;;;;;;13.85;9.27;;;;;;;;;;12509037;23;20164;-78
2023/06/19 06:10:13;;;;;;;11.02;8.27;;;;;;;;;;12508895;23;20408;-78
2023/06/19 06:15:35;;;;;;;9.43;8.50;;;;;;;;;;12508805;23;20191;-78
2023/06/19 06:20:58;;;;;;;7.60;6.45;;;19.30;99.90;;;;;;12508245;23;20304;-78
2023/06/19 06:26:21;;;;;;;7.07;6.25;;;19.50;99.90;;;;;;12509483;23;20191;-79
2023/06/19 06:31:46;;;;;;;8.40;6.97;;;19.80;99.90;;;;;;12508447;23;20168;-79
2023/06/19 06:37:08;;;;;;;7.82;5.93;;;20.10;99.90;;;;;;12507812;23;20249;-78
2023/06/19 06:42:30;;;;;;;6.32;5.43;;;20.50;99.90;;;;;;12508376;23;20172;-78
2023/06/19 06:47:51;;;;;;;5.70;5.10;;;21.00;99.90;;;;;;12508829;23;20176;-78
2023/06/19 06:53:12;;;;;;;6.35;5.68;;;21.40;99.90;;;;;;12509289;23;20180;-79
2023/06/19 06:58:33;;;;;;;9.25;4.78;;;21.90;99.90;;;;;;12508360;23;20533;-79
2023/06/19 07:03:55;;;;;;;4.95;4.50;;;22.60;1.00;;;;;;12509426;23;20164;-79
2023/06/19 07:09:16;;;;;;;5.30;4.80;;;23.20;1.00;;;;;;12509568;23;20175;-79
2023/06/19 07:14:37;;;;;;;8.05;5.00;;;23.70;1.00;;;;;;12633851;23;20195;-79
2023/06/19 07:19:59;;;;;;;6.25;5.18;;;24.10;1.00;;;;;;12508269;23;20219;-79
2023/06/19 07:25:24;;;;;;;8.45;4.95;;;24.50;1.00;;;;;;12613470;23;20231;-79
2023/06/19 07:30:47;;;;;;;6.32;5.00;;;24.70;1.00;;;;;;12481656;23;20227;-79
2023/06/19 07:36:13;;;;;;;5.05;4.65;;;25.20;1.00;;;;;;12481729;23;20206;-84
2023/06/19 07:41:36;;;;;;;5.70;4.80;;;25.30;99.90;;;;;;12501916;23;20267;-81
2023/06/19 07:46:57;;;;;;;5.05;4.55;;;25.60;99.90;;;;;;12502429;23;20176;-85
2023/06/19 07:52:18;;;;;;;5.13;4.63;;;25.70;99.90;;;;;;12502089;23;20172;-80
2023/06/19 07:57:39;;;;;;;7.07;5.05;;;26.40;99.90;;;;;;12503390;23;20510;-82
2023/06/19 08:03:00;;;;;;;6.20;5.30;;;26.20;99.90;;;;;;12608596;23;20180;-82
2023/06/19 08:08:23;;;;;;;5.65;4.88;;;25.40;99.90;;;;;;12501854;23;20357;-83
2023/06/19 08:13:44;;;;;;;10.02;7.93;;;24.70;99.90;;;;;;12480709;23;20168;-80
2023/06/19 08:19:05;;;;;;;7.90;5.50;;;24.30;99.90;;;;;;12501912;23;20529;-81
2023/06/19 08:24:27;;;;;;;6.55;4.97;;;24.40;99.90;;;;;;12608313;23;20308;-78
2023/06/19 08:29:48;;;;;;;5.75;5.20;;;24.30;99.90;;;;;;12503157;23;20168;-79
2023/06/19 08:35:09;;;;;;;6.05;5.25;;;25.60;99.90;;;;;;12502047;23;20196;-85
2023/06/19 08:40:31;;;;;;;9.00;5.40;;;26.80;99.90;;;;;;12503299;23;20200;-78
2023/06/19 08:46:10;;;;;;;7.47;4.68;;;26.90;99.90;;;;;;12502595;23;20168;-78
2023/06/19 08:51:31;;;;;;;6.30;4.95;;;26.40;99.90;;;;;;12502953;23;20211;-81
2023/06/19 08:56:59;;;;;;;6.47;4.30;;;26.50;99.90;;;;;;12626910;23;20188;-80
2023/06/19 09:02:21;;;;;;;6.40;5.15;;;26.70;99.90;;;;;;12503348;23;20198;-78
2023/06/19 09:07:43;;;;;;;8.70;5.40;;;27.60;99.90;;;;;;12502800;23;20164;-86
2023/06/19 09:13:04;;;;;;;6.45;5.07;;;28.20;99.90;;;;;;12501924;23;20408;-79
2023/06/19 09:18:27;;;;;;;6.05;4.22;;;28.50;99.90;;;;;;12500799;23;20207;-79
2023/06/19 09:23:51;;;;;;;5.32;4.10;;;28.10;99.90;;;;;;12481776;23;20239;-83
2023/06/19 09:29:19;;;;;;;5.43;4.07;;;28.70;99.90;;;;;;12479049;23;20168;-84
2023/06/19 09:34:41;;;;;;;5.72;4.63;;;28.90;99.90;;;;;;12500685;23;20255;-80
2023/06/19 09:40:10;;;;;;;5.25;4.25;;;29.30;99.90;;;;;;12500326;23;20199;-81
2023/06/19 09:45:33;;;;;;;6.00;4.70;;;28.60;99.90;;;;;;12502133;23;20172;-79
2023/06/19 09:51:04;;;;;;;8.80;4.70;;;28.40;99.90;;;;;;12503289;23;20184;-91
2023/06/19 09:56:27;;;;;;;6.63;4.20;;;28.40;99.90;;;;;;12500535;23;20184;-83
2023/06/19 10:01:49;;;;;;;4.15;3.75;;;28.50;99.90;;;;;;12629558;23;20251;-85
2023/06/19 10:07:17;;;;;;;5.18;4.32;;;28.30;99.90;;;;;;12505866;23;20168;-90
2023/06/19 10:12:45;;;;;;;5.43;4.47;;;27.90;99.90;;;;;;12483683;23;20271;-86
2023/06/19 10:18:07;;;;;;;6.68;6.07;;;28.10;99.90;;;;;;12503039;23;20238;-79
2023/06/19 10:23:28;;;;;;;6.47;4.75;;;28.80;99.90;;;;;;12503926;23;20248;-79
2023/06/19 10:28:49;;;;;;;8.27;4.68;;;29.40;99.90;;;;;;12503552;23;20363;-78
2023/06/19 10:34:11;;;;;;;6.25;5.10;;;29.80;99.90;;;;;;12482472;23;20271;-79
2023/06/19 10:39:32;;;;;;;6.28;5.68;;;30.00;99.90;;;;;;12503008;23;20255;-80
2023/06/19 10:45:02;;;;;;;6.43;5.57;;;30.10;99.90;;;;;;12499783;23;20215;-80
2023/06/19 10:50:24;;;;;;;5.57;4.80;;;29.90;99.90;;;;;;12503702;23;20183;-78
2023/06/19 10:55:46;;;;;;;7.95;4.63;;;30.10;99.90;;;;;;12502619;23;20179;-82
2023/06/19 11:01:07;;;;;;;6.10;4.75;;;30.40;99.90;;;;;;12503528;23;20195;-81
2023/06/19 11:06:28;;;;;;;5.30;4.80;;;29.90;99.90;;;;;;12503048;23;20179;-77
2023/06/19 11:11:50;;;;;;;6.65;4.63;;;29.90;99.90;;;;;;12501888;23;20190;-78
2023/06/19 11:17:11;;;;;;;6.80;4.28;;;29.40;99.90;;;;;;12521926;23;20231;-80
2023/06/19 11:22:40;;;;;;;5.22;4.72;;;29.20;99.90;;;;;;12502638;23;20497;-78
2023/06/19 11:28:02;;;;;;;6.40;5.57;;;29.00;99.90;;;;;;12502860;23;20195;-79
2023/06/19 11:33:24;;;;;;;11.95;8.05;;;29.00;99.90;;;;;;12502955;23;20200;-82
2023/06/19 11:38:47;;;;;;;5.25;4.55;;;28.80;99.90;;;;;;12502182;23;20192;-80
2023/06/19 11:44:11;;;;;;;6.00;4.97;;;29.00;99.90;;;;;;12503080;23;20344;-80
2023/06/19 11:49:35;;;;;;;4.63;4.22;;;28.30;99.90;;;;;;12608387;23;20415;-80
2023/06/19 11:54:56;;;;;;;5.95;5.13;;;27.50;99.90;;;;;;12502350;23;20387;-80
2023/06/19 12:00:17;;;;;;;15.45;11.13;;;27.20;99.90;;;;;;12585309;23;20567;-79
2023/06/19 12:05:39;;;;;;;8.30;6.13;;;27.20;99.90;;;;;;12462588;23;20292;-79
2023/06/19 12:11:00;;;;;;;5.35;4.63;;;27.20;99.90;;;;;;12626873;23;20245;-78
2023/06/19 12:16:22;;;;;;;5.97;5.20;;;27.00;99.90;;;;;;12502940;23;20171;-78
2023/06/19 12:21:43;;;;;;;5.55;5.00;;;26.90;99.90;;;;;;12503040;23;20184;-79
2023/06/19 12:27:05;;;;;;;11.35;7.45;;;27.60;99.90;;;;;;12500748;23;20183;-78
2023/06/19 12:32:26;;;;;;;12.48;6.90;;;28.40;99.90;;;;;;12502876;23;20446;-77
2023/06/19 12:37:47;;;;;;;9.25;6.38;;;29.10;99.90;;;;;;12502829;23;20212;-79
2023/06/19 12:43:08;;;;;;;7.93;5.63;;;29.00;99.90;;;;;;12501491;23;20278;-79
2023/06/19 12:48:30;;;;;;;8.02;5.50;;;28.60;99.90;;;;;;12502552;23;20191;-87
2023/06/19 12:53:51;;;;;;;13.27;5.50;;;28.30;99.90;;;;;;12502618;23;20175;-77
2023/06/19 12:59:12;;;;;;;6.50;5.38;;;28.70;99.90;;;;;;12528932;22;20214;-81
2023/06/19 13:04:33;;;;;;;7.03;5.35;;;28.70;99.90;;;;;;12620663;23;20468;-80
2023/06/19 13:09:55;;;;;;;7.45;4.78;;;28.30;99.90;;;;;;12599127;23;20183;-82
2023/06/19 13:15:16;;;;;;;9.85;5.90;;;28.00;99.90;;;;;;12620313;23;20170;-79
2023/06/19 13:20:37;;;;;;;7.88;5.00;;;27.70;99.90;;;;;;12620098;23;20197;-75
2023/06/19 13:25:59;;;;;;;10.05;8.18;;;27.50;99.90;;;;;;12619761;23;20405;-77
2023/06/19 13:31:20;;;;;;;5.70;4.70;;;27.70;99.90;;;;;;12621237;23;20546;-76
2023/06/19 13:36:42;;;;;;;5.80;5.03;;;27.70;99.90;;;;;;12622160;23;20162;-81
2023/06/19 13:42:03;;;;;;;8.85;5.25;;;27.60;99.90;;;;;;12625649;23;20234;-83
2023/06/19 13:47:25;;;;;;;16.55;6.10;;;27.60;99.90;;;;;;12622058;23;20206;-78
2023/06/19 13:52:46;;;;;;;7.97;5.00;;;27.80;99.90;;;;;;12602549;23;20170;-82
2023/06/19 13:58:08;;;;;;;5.97;5.10;;;27.70;99.90;;;;;;12623581;23;20222;-85
2023/06/19 14:03:29;;;;;;;7.25;5.43;;;27.70;99.90;;;;;;12623439;23;20178;-86
2023/06/19 14:08:51;;;;;;;5.28;4.70;;;28.10;99.90;;;;;;12622549;23;20186;-77
2023/06/19 14:14:13;;;;;;;8.32;5.22;;;28.00;99.90;;;;;;12623725;23;20242;-84
2023/06/19 14:19:34;;;;;;;5.63;4.50;;;27.80;99.90;;;;;;12622328;23;20198;-80
2023/06/19 14:24:59;;;;;;;5.18;4.68;;;27.60;99.90;;;;;;12621816;23;20186;-82
2023/06/19 14:30:21;;;;;;;6.75;5.57;;;27.30;99.90;;;;;;12580510;23;20377;-83
2023/06/19 14:35:45;;;;;;;10.13;6.55;;;27.10;99.90;;;;;;12601294;23;20178;-81
2023/06/19 14:41:07;;;;;;;6.55;5.13;;;26.60;99.90;;;;;;12581558;23;20244;-80
2023/06/19 14:46:28;;;;;;;9.98;5.95;;;26.60;99.90;;;;;;12622033;23;20178;-84
2023/06/19 14:51:52;;;;;;;7.18;5.40;;;26.60;99.90;;;;;;12621071;23;20171;-77
2023/06/19 14:57:14;;;;;;;7.15;5.75;;;26.60;99.90;;;;;;12622239;23;20481;-77
2023/06/19 15:02:35;;;;;;;8.60;5.68;;;26.50;99.90;;;;;;12623532;23;20261;-78
2023/06/19 15:07:59;;;;;;;5.68;5.15;;;;;;;;;;12624134;23;20170;-76
2023/06/19 15:13:21;;;;;;;8.95;7.05;;;26.20;99.90;;;;;;12624335;23;20358;-77
2023/06/19 15:18:43;;;;;;;8.93;6.75;;;26.20;99.90;;;;;;12627412;23;20190;-78
2023/06/19 15:24:04;;;;;;;20.42;14.82;;;26.20;99.90;;;;;;12627323;23;20178;-79
2023/06/19 15:29:25;;;;;;;8.82;7.13;;;26.30;99.90;;;;;;12624808;23;20174;-78
2023/06/19 15:34:47;;;;;;;16.73;11.02;;;26.50;99.90;;;;;;12622702;23;20216;-78
2023/06/19 15:40:08;;;;;;;19.75;12.25;;;26.60;99.90;;;;;;12625426;23;20191;-81
2023/06/19 15:45:29;;;;;;;9.60;6.53;;;26.80;99.90;;;;;;12626668;23;20163;-77
2023/06/19 15:50:50;;;;;;;7.28;6.22;;;26.80;99.90;;;;;;12626493;23;20183;-80
2023/06/19 15:56:12;;;;;;;16.58;10.55;;;26.60;99.90;;;;;;12628012;23;20484;-79
2023/06/19 16:01:33;;;;;;;10.57;7.57;;;26.40;99.90;;;;;;12627382;23;20524;-77
2023/06/19 16:06:55;;;;;;;6.53;5.82;;;26.30;99.90;;;;;;12606291;23;20242;-78
2023/06/19 16:12:16;;;;;;;6.10;5.50;;;26.40;99.90;;;;;;12627670;23;20167;-79
2023/06/19 16:17:37;;;;;;;5.63;4.95;;;26.40;99.90;;;;;;12626377;23;20228;-77
2023/06/19 16:22:59;;;;;;;5.68;5.10;;;26.50;99.90;;;;;;12627080;23;20167;-76
2023/06/19 16:28:20;;;;;;;5.43;4.65;;;26.60;99.90;;;;;;12627310;23;20167;-77
2023/06/19 16:33:41;;;;;;;5.00;4.50;;;26.60;99.90;;;;;;12626263;23;20495;-77
2023/06/19 16:39:03;;;;;;;5.57;5.07;;;26.50;99.90;;;;;;12627943;23;20229;-77
2023/06/19 16:44:24;;;;;;;6.65;5.75;;;26.50;99.90;;;;;;12625701;23;20178;-77
2023/06/19 16:49:45;;;;;;;12.38;5.38;;;26.50;99.90;;;;;;12627110;23;20237;-79
2023/06/19 16:55:08;;;;;;;5.35;4.85;;;26.40;99.90;;;;;;12626953;23;20178;-82
2023/06/19 17:00:30;;;;;;;5.85;5.03;;;26.40;99.90;;;;;;12605480;23;20202;-76
2023/06/19 17:05:51;;;;;;;6.75;5.75;;;26.30;99.90;;;;;;12626671;23;20147;-77
2023/06/19 17:11:12;;;;;;;5.88;5.25;;;26.10;99.90;;;;;;12628936;23;20166;-76
2023/06/19 17:16:35;;;;;;;7.20;6.25;;;25.80;99.90;;;;;;12627502;23;20344;-76
2023/06/19 17:21:56;;;;;;;7.43;5.30;;;25.70;99.90;;;;;;12629069;23;20382;-77
2023/06/19 17:27:18;;;;;;;7.90;6.10;;;25.60;99.90;;;;;;12628490;23;20189;-77
2023/06/19 17:32:40;;;;;;;6.50;5.68;;;25.50;99.90;;;;;;12627656;23;20182;-77
2023/06/19 17:38:02;;;;;;;6.40;5.75;;;25.40;99.90;;;;;;12628617;23;20190;-79
2023/06/19 17:43:23;;;;;;;5.70;5.20;;;25.30;99.90;;;;;;12627765;23;20163;-77
2023/06/19 17:48:44;;;;;;;6.53;5.13;;;25.20;99.90;;;;;;12628661;23;20205;-77
2023/06/19 17:54:05;;;;;;;7.05;5.53;;;25.10;99.90;;;;;;12732875;23;20171;-76
2023/06/19 17:59:27;;;;;;;7.28;5.65;;;25.10;99.90;;;;;;12607260;23;20202;-77
2023/06/19 18:04:49;;;;;;;6.38;5.78;;;24.90;99.90;;;;;;12588192;23;20170;-76
2023/06/19 18:10:10;;;;;;;6.40;5.80;;;24.80;99.90;;;;;;12626504;23;20175;-78
2023/06/19 18:15:32;;;;;;;6.45;5.57;;;24.70;99.90;;;;;;12628192;23;20163;-77
2023/06/19 18:20:54;;;;;;;8.05;6.13;;;24.60;99.90;;;;;;12628722;23;20430;-78
2023/06/19 18:26:15;;;;;;;10.60;6.72;;;24.40;99.90;;;;;;12628646;23;20163;-75
2023/06/19 18:31:37;;;;;;;6.70;5.97;;;24.30;1.00;;;;;;12627352;23;20237;-78
2023/06/19 18:36:59;;;;;;;7.35;6.43;;;24.20;1.00;;;;;;12629095;23;20163;-80
2023/06/19 18:42:21;;;;;;;7.50;6.40;;;24.10;1.00;;;;;;12628288;23;20191;-77
2023/06/19 18:47:42;;;;;;;7.55;5.88;;;24.00;1.00;;;;;;12628850;23;20227;-78
2023/06/19 18:53:03;;;;;;;10.63;6.10;;;23.90;1.00;;;;;;12626410;23;20254;-77
2023/06/19 18:58:24;;;;;;;9.55;6.70;;;23.80;1.00;;;;;;12628698;23;20214;-76
2023/06/19 19:03:45;;;;;;;7.57;6.78;;;23.60;1.00;;;;;;12627765;23;20163;-77
2023/06/19 19:09:07;;;;;;;7.70;6.25;;;23.50;16.20;;;;;;12626516;23;20191;-79
2023/06/19 19:14:28;;;;;;;8.15;6.63;;;23.40;99.90;;;;;;12627547;23;20183;-78
2023/06/19 19:19:49;;;;;;;13.93;7.30;;;23.30;99.90;;;;;;12628218;23;20190;-78
2023/06/19 19:25:11;;;;;;;8.23;7.22;;;23.20;99.90;;;;;;12627610;23;20162;-79
2023/06/19 19:30:32;;;;;;;9.25;7.63;;;23.10;99.90;;;;;;12627958;23;20174;-79
2023/06/19 19:35:54;;;;;;;10.02;6.85;;;22.90;1.00;;;;;;12628135;23;20269;-81
2023/06/19 19:41:15;;;;;;;9.10;7.80;;;22.80;1.00;;;;;;12628402;23;20191;-77
2023/06/19 19:46:39;;;;;;;8.50;7.05;;;22.70;1.00;;;;;;12626376;23;20360;-79
2023/06/19 19:52:01;;;;;;;6.32;5.72;;;22.60;1.00;;;;;;12628266;23;20221;-79
2023/06/19 19:57:23;;;;;;;6.82;6.13;;;22.50;1.00;;;;;;12626924;23;20337;-82
2023/06/19 20:02:44;;;;;;;8.98;5.90;;;22.30;1.00;;;;;;12627196;23;20294;-82
2023/06/19 20:08:06;;;;;;;7.90;6.28;;;22.20;1.00;;;;;;12627337;23;20175;-77
2023/06/19 20:13:27;;;;;;;7.32;5.97;;;22.20;1.00;;;;;;12626898;23;20174;-80
2023/06/19 20:18:49;;;;;;;9.60;6.82;;;22.10;1.00;;;;;;12627053;23;20197;-77
2023/06/19 20:24:10;;;;;;;9.40;6.93;;;22.10;99.90;;;;;;12627671;23;20185;-77
2023/06/19 20:29:31;;;;;;;12.27;7.15;;;22.00;99.90;;;;;;12626994;23;20527;-78
2023/06/19 20:34:52;;;;;;;11.35;7.20;;;21.90;99.90;;;;;;12626943;23;20163;-79
2023/06/19 20:40:13;;;;;;;16.13;7.72;;;21.90;99.90;;;;;;12626438;23;20385;-77
2023/06/19 20:45:34;;;;;;;14.07;7.80;;;21.80;99.90;;;;;;12625793;23;20341;-78
2023/06/19 20:50:57;;;;;;;9.85;7.25;;;21.70;99.90;;;;;;12605574;23;20536;-80
2023/06/19 20:56:18;;;;;;;10.38;6.70;;;21.70;99.90;;;;;;12626456;23;20523;-79
2023/06/19 21:01:39;;;;;;;12.82;7.15;;;21.70;99.90;;;;;;12626228;23;20194;-80
2023/06/19 21:07:01;;;;;;;12.45;6.88;;;21.70;99.90;;;;;;12626178;23;20453;-80
2023/06/19 21:12:22;;;;;;;9.70;6.47;;;21.60;99.90;;;;;;12627229;23;20163;-80
2023/06/19 21:17:43;;;;;;;9.23;6.28;;;21.60;99.90;;;;;;12626254;23;20241;-79
2023/06/19 21:23:04;;;;;;;7.80;6.35;;;21.60;99.90;;;;;;12625701;23;20183;-79
2023/06/19 21:28:25;;;;;;;7.00;5.95;;;21.50;99.90;;;;;;12626200;23;20167;-78
2023/06/19 21:33:46;;;;;;;6.57;5.88;;;21.50;99.90;;;;;;12626788;23;20170;-77
2023/06/19 21:39:07;;;;;;;9.00;6.13;;;21.40;99.90;;;;;;12625046;23;20198;-80
2023/06/19 21:44:28;;;;;;;6.97;6.05;;;21.40;99.90;;;;;;12626550;23;20234;-77
2023/06/19 21:49:49;;;;;;;8.82;6.13;;;21.40;99.90;;;;;;12624777;23;20201;-78
2023/06/19 21:55:11;;;;;;;6.60;5.93;;;21.30;99.90;;;;;;12627715;23;20205;-78
2023/06/19 22:00:32;;;;;;;7.53;5.97;;;21.20;99.90;;;;;;12628175;23;20221;-78
2023/06/19 22:05:53;;;;;;;6.07;5.45;;;21.20;99.90;;;;;;12629226;23;20363;-78
2023/06/19 22:11:15;;;;;;;7.03;5.75;;;21.10;1.00;;;;;;12628834;23;20241;-80
2023/06/19 22:16:36;;;;;;;8.40;7.53;;;21.10;1.00;;;;;;12628935;23;20162;-78
2023/06/19 22:21:59;;;;;;;8.32;7.07;;;;;;;;;;12628416;23;20191;-79
2023/06/19 22:27:20;;;;;;;8.32;6.93;;;;;;;;;;12627712;23;20163;-79
2023/06/19 22:32:42;;;;;;;8.18;7.03;;;20.70;95.70;;;;;;12628062;23;20345;-78
2023/06/19 22:38:03;;;;;;;9.35;6.85;;;20.50;99.90;;;;;;12628494;23;20167;-81
2023/06/19 22:43:25;;;;;;;7.53;6.70;;;20.40;1.00;;;;;;12628754;23;20163;-78
2023/06/19 22:48:50;;;;;;;8.57;7.43;;;20.40;99.90;;;;;;12627247;23;20174;-79
2023/06/19 22:54:11;;;;;;;6.93;6.20;;;20.30;1.00;;;;;;12628876;23;20512;-79
2023/06/19 22:59:32;;;;;;;9.65;6.63;;;20.30;99.90;;;;;;12627574;23;20220;-81
2023/06/19 23:04:55;;;;;;;8.27;7.35;;;20.30;77.00;;;;;;12628315;23;20162;-79
2023/06/19 23:10:17;;;;;;;10.02;7.43;;;20.30;99.90;;;;;;12628493;23;20167;-78
2023/06/19 23:15:38;;;;;;;7.25;6.55;;;20.30;1.00;;;;;;12626372;23;20170;-78
2023/06/19 23:21:00;;;;;;;7.90;7.10;;;20.40;1.00;;;;;;12627871;23;20197;-78
2023/06/19 23:26:23;;;;;;;7.97;7.18;;;20.30;1.00;;;;;;12628896;23;20163;-77
2023/06/19 23:31:44;;;;;;;8.95;6.80;;;20.30;1.00;;;;;;12626928;23;20217;-79
2023/06/19 23:37:06;;;;;;;10.85;7.20;;;20.00;1.00;;;;;;12627368;23;20162;-80
2023/06/19 23:42:27;;;;;;;9.98;7.75;;;20.10;1.00;;;;;;12606539;23;20277;-80
2023/06/19 23:47:48;;;;;;;7.65;6.68;;;20.10;1.00;;;;;;12628039;23;20367;-79
2023/06/19 23:53:10;;;;;;;9.35;8.52;;;20.10;1.00;;;;;;12627079;23;20661;-77
2023/06/19 23:58:31;;;;;;;8.75;7.75;;;20.00;99.90;;;;;;12626897;23;20197;-76
